createdAt,value
2022-09-09T00:00:21.312Z,1.33
2022-09-09T00:02:55.561Z,1.30
2022-09-09T00:05:31.077Z,1.40
2022-09-09T00:08:02.134Z,1.30
2022-09-09T00:10:34.945Z,1.70
2022-09-09T00:13:17.032Z,1.60
2022-09-09T00:16:03.057Z,1.43
2022-09-09T00:18:51.907Z,1.50
2022-09-09T00:21:19.613Z,1.40
2022-09-09T00:23:50.229Z,2.10
2022-09-09T00:26:28.318Z,2.00
2022-09-09T00:28:58.534Z,1.77
2022-09-09T00:31:28.165Z,1.53
2022-09-09T00:33:56.585Z,1.60
2022-09-09T00:36:26.291Z,1.50
2022-09-09T00:38:57.514Z,1.20
2022-09-09T00:41:24.591Z,1.47
2022-09-09T00:44:12.196Z,1.13
2022-09-09T00:47:02.292Z,1.20
2022-09-09T00:49:32.402Z,1.67
2022-09-09T00:52:19.393Z,1.40
2022-09-09T00:55:07.796Z,1.40
2022-09-09T00:57:36.464Z,1.47
2022-09-09T01:00:23.689Z,1.67
2022-09-09T01:02:59.242Z,1.60
2022-09-09T01:05:36.042Z,1.53
2022-09-09T01:08:04.622Z,1.33
2022-09-09T01:10:42.339Z,1.40
2022-09-09T01:13:15.993Z,1.00
2022-09-09T01:15:43.890Z,1.20
2022-09-09T01:18:13.476Z,1.20
2022-09-09T01:21:09.799Z,1.37
2022-09-09T01:23:55.397Z,1.30
2022-09-09T01:26:54.992Z,1.20
2022-09-09T01:29:24.384Z,1.20
2022-09-09T01:31:58.651Z,1.20
2022-09-09T01:34:28.428Z,1.60
2022-09-09T01:36:55.492Z,1.30
2022-09-09T01:39:22.759Z,1.30
2022-09-09T01:41:49.855Z,1.20
2022-09-09T01:44:17.114Z,1.20
2022-09-09T01:46:44.213Z,1.20
2022-09-09T01:49:11.373Z,1.10
2022-09-09T01:51:39.719Z,1.30
2022-09-09T01:54:07.539Z,1.50
2022-09-09T01:56:42.273Z,1.10
2022-09-09T01:59:28.083Z,1.10
2022-09-09T02:02:10.237Z,1.17
2022-09-09T02:04:44.872Z,1.20
2022-09-09T02:07:17.747Z,1.50
2022-09-09T02:09:46.406Z,1.47
2022-09-09T02:12:15.657Z,1.30
2022-09-09T02:14:44.047Z,1.60
2022-09-09T02:17:12.437Z,1.60
2022-09-09T02:19:42.657Z,1.63
2022-09-09T02:22:09.717Z,1.47
2022-09-09T02:24:37.846Z,1.50
2022-09-09T02:27:07.030Z,1.40
2022-09-09T02:29:36.779Z,1.50
2022-09-09T02:32:06.686Z,1.40
2022-09-09T02:34:37.220Z,1.50
2022-09-09T02:37:05.239Z,1.70
2022-09-09T02:39:32.463Z,1.73
2022-09-09T02:41:59.525Z,1.63
2022-09-09T02:44:26.667Z,2.20
2022-09-09T02:46:59.956Z,1.97
2022-09-09T02:49:32.944Z,1.70
2022-09-09T02:52:06.742Z,1.63
2022-09-09T02:54:34.967Z,1.60
2022-09-09T02:57:11.309Z,1.80
2022-09-09T02:59:38.850Z,1.63
2022-09-09T03:02:06.589Z,2.20
2022-09-09T03:04:33.890Z,2.00
2022-09-09T03:07:00.982Z,1.73
2022-09-09T03:09:28.048Z,1.77
2022-09-09T03:11:56.072Z,1.70
2022-09-09T03:14:25.546Z,1.80
2022-09-09T03:16:53.306Z,1.90
2022-09-09T03:19:20.684Z,1.90
2022-09-09T03:21:48.231Z,2.27
2022-09-09T03:24:15.584Z,1.80
2022-09-09T03:26:45.672Z,2.13
2022-09-09T03:29:13.541Z,2.00
2022-09-09T03:31:41.290Z,1.93
2022-09-09T03:34:08.752Z,1.83
2022-09-09T03:36:35.973Z,1.97
2022-09-09T03:39:04.136Z,2.20
2022-09-09T03:41:31.924Z,2.10
2022-09-09T03:43:59.032Z,2.10
2022-09-09T03:46:26.766Z,2.23
2022-09-09T03:48:54.290Z,2.00
2022-09-09T03:51:22.932Z,2.20
2022-09-09T03:53:50.101Z,2.27
2022-09-09T03:56:17.191Z,2.00
2022-09-09T03:58:44.743Z,2.30
2022-09-09T04:01:18.376Z,2.20
2022-09-09T04:03:45.975Z,2.23
2022-09-09T04:06:15.464Z,2.07
2022-09-09T04:08:42.882Z,2.10
2022-09-09T04:11:10.714Z,1.93
2022-09-09T04:13:39.584Z,2.00
2022-09-09T04:16:07.021Z,2.23
2022-09-09T04:18:35.348Z,2.00
2022-09-09T04:21:02.779Z,1.87
2022-09-09T04:23:30.395Z,2.23
2022-09-09T04:25:58.386Z,2.53
2022-09-09T04:28:26.686Z,2.47
2022-09-09T04:30:54.073Z,2.33
2022-09-09T04:33:21.251Z,2.27
2022-09-09T04:35:50.319Z,2.30
2022-09-09T04:38:19.108Z,2.37
2022-09-09T04:40:48.258Z,2.00
2022-09-09T04:43:15.755Z,2.50
2022-09-09T04:45:43.720Z,2.00
2022-09-09T04:48:10.908Z,2.50
2022-09-09T04:50:38.030Z,2.30
2022-09-09T04:53:05.941Z,2.23
2022-09-09T04:55:33.444Z,2.80
2022-09-09T04:58:04.821Z,2.50
2022-09-09T05:00:31.947Z,2.80
2022-09-09T05:02:59.103Z,3.10
2022-09-09T05:05:26.662Z,2.40
2022-09-09T05:07:53.800Z,2.67
2022-09-09T05:10:20.883Z,2.80
2022-09-09T05:12:55.125Z,2.80
2022-09-09T05:15:22.293Z,2.60
2022-09-09T05:17:49.397Z,2.17
2022-09-09T05:20:17.658Z,2.40
2022-09-09T05:22:44.879Z,2.30
2022-09-09T05:25:11.958Z,2.30
2022-09-09T05:27:39.037Z,1.77
2022-09-09T05:30:06.301Z,2.00
2022-09-09T05:32:34.347Z,1.47
2022-09-09T05:35:02.517Z,1.43
2022-09-09T05:37:31.157Z,1.30
2022-09-09T05:39:58.991Z,1.73
2022-09-09T05:42:26.139Z,1.23
2022-09-09T05:44:55.338Z,1.50
2022-09-09T05:47:22.420Z,1.27
2022-09-09T05:49:50.372Z,1.30
2022-09-09T05:52:17.487Z,1.10
2022-09-09T05:54:44.841Z,1.40
2022-09-09T05:57:11.906Z,1.20
2022-09-09T05:59:39.323Z,1.30
2022-09-09T06:02:06.533Z,1.20
2022-09-09T06:04:33.935Z,1.20
2022-09-09T06:07:01.054Z,1.00
2022-09-09T06:09:28.259Z,1.20
2022-09-09T06:11:55.514Z,1.07
2022-09-09T06:14:22.920Z,1.17
2022-09-09T06:16:50.523Z,1.17
2022-09-09T06:19:17.687Z,1.20
2022-09-09T06:21:45.393Z,1.37
2022-09-09T06:24:14.784Z,1.13
2022-09-09T06:26:42.153Z,1.17
2022-09-09T06:29:09.819Z,0.90
2022-09-09T06:31:38.013Z,1.00
2022-09-09T06:34:09.021Z,0.90
2022-09-09T06:36:37.979Z,1.20
2022-09-09T06:39:05.606Z,0.80
2022-09-09T06:41:33.911Z,0.90
2022-09-09T06:44:01.972Z,0.80
2022-09-09T06:46:31.319Z,0.80
2022-09-09T06:48:59.757Z,1.07
2022-09-09T06:51:34.178Z,0.70
2022-09-09T06:54:03.184Z,1.10
2022-09-09T06:56:31.529Z,1.00
2022-09-09T06:58:59.496Z,0.90
2022-09-09T07:01:28.577Z,0.93
2022-09-09T07:03:56.466Z,0.90
2022-09-09T07:06:24.969Z,1.23
2022-09-09T07:08:56.539Z,0.95
2022-09-09T07:11:25.098Z,0.80
2022-09-09T07:13:52.233Z,1.02
2022-09-09T07:16:20.672Z,0.90
2022-09-09T07:18:48.138Z,0.80
2022-09-09T07:21:16.891Z,1.05
2022-09-09T07:23:44.349Z,0.70
2022-09-09T07:26:20.306Z,0.98
2022-09-09T07:28:47.859Z,0.68
2022-09-09T07:31:17.527Z,0.98
2022-09-09T07:33:45.352Z,0.90
2022-09-09T07:36:19.706Z,0.88
2022-09-09T07:38:47.721Z,0.90
2022-09-09T07:41:19.568Z,0.95
2022-09-09T07:43:47.225Z,1.13
2022-09-09T07:46:15.961Z,0.80
2022-09-09T07:49:01.885Z,0.80
2022-09-09T07:51:30.798Z,0.90
2022-09-09T07:53:59.328Z,0.98
2022-09-09T07:56:27.233Z,0.85
2022-09-09T07:58:55.304Z,0.90
2022-09-09T08:01:29.080Z,0.95
2022-09-09T08:04:00.095Z,0.90
2022-09-09T08:06:28.372Z,0.65
2022-09-09T08:08:55.945Z,1.20
2022-09-09T08:11:24.612Z,0.98
2022-09-09T08:13:54.821Z,1.20
2022-09-09T08:16:24.927Z,1.10
2022-09-09T08:18:52.517Z,1.00
2022-09-09T08:21:20.952Z,1.10
2022-09-09T08:23:48.438Z,0.90
2022-09-09T08:26:24.227Z,0.95
2022-09-09T08:28:53.032Z,0.90
2022-09-09T08:33:54.969Z,0.90
2022-09-09T08:36:22.986Z,1.20
2022-09-09T08:38:55.122Z,1.02
2022-09-09T08:41:40.901Z,1.13
2022-09-09T08:44:26.853Z,0.82
2022-09-09T08:47:13.721Z,0.90
2022-09-09T08:49:50.857Z,1.23
2022-09-09T08:52:20.238Z,1.23
2022-09-09T08:54:52.474Z,1.30
2022-09-09T08:57:23.115Z,1.40
2022-09-09T08:59:51.935Z,1.20
2022-09-09T09:02:21.910Z,1.10
2022-09-09T09:05:13.775Z,1.20
2022-09-09T09:07:44.478Z,1.17
2022-09-09T09:10:40.473Z,1.05
2022-09-09T09:13:14.147Z,1.05
2022-09-09T09:15:42.987Z,1.00
2022-09-09T09:18:13.573Z,1.20
2022-09-09T09:21:00.119Z,1.23
2022-09-09T09:23:31.691Z,1.42
2022-09-09T09:26:01.831Z,1.27
2022-09-09T09:28:31.173Z,1.48
2022-09-09T09:31:02.567Z,1.00
2022-09-09T09:33:50.569Z,1.27
2022-09-09T09:36:18.335Z,1.20
2022-09-09T09:41:46.660Z,1.23
2022-09-09T09:44:30.095Z,1.10
2022-09-09T09:47:12.446Z,1.02
2022-09-09T09:49:40.625Z,1.40
2022-09-09T09:52:08.725Z,1.23
2022-09-09T09:54:39.714Z,1.17
2022-09-09T09:57:13.488Z,1.58
2022-09-09T09:59:41.091Z,1.20
2022-09-09T10:02:30.365Z,1.20
2022-09-09T10:05:08.982Z,1.40
2022-09-09T10:07:38.338Z,1.20
2022-09-09T10:10:06.014Z,1.20
2022-09-09T10:12:39.199Z,1.20
2022-09-09T10:15:25.230Z,1.25
2022-09-09T10:18:03.804Z,1.20
2022-09-09T10:20:39.972Z,1.35
2022-09-09T10:23:23.138Z,1.45
2022-09-09T10:26:04.401Z,1.40
2022-09-09T10:28:51.888Z,1.25
2022-09-09T10:31:19.067Z,1.55
2022-09-09T10:33:59.185Z,2.80
2022-09-09T10:36:30.729Z,1.80
2022-09-09T10:39:12.756Z,2.30
2022-09-09T10:41:46.017Z,1.70
2022-09-09T10:44:16.109Z,1.40
2022-09-09T10:46:43.173Z,1.10
2022-09-09T10:49:19.430Z,1.53
2022-09-09T10:51:51.987Z,1.30
2022-09-09T10:54:21.907Z,1.30
2022-09-09T10:56:55.635Z,1.00
2022-09-09T10:59:25.229Z,1.00
2022-09-09T11:02:14.662Z,1.20
2022-09-09T11:05:03.949Z,1.20
2022-09-09T11:07:45.536Z,1.10
2022-09-09T11:10:36.655Z,1.00
2022-09-09T11:13:10.372Z,0.70
2022-09-09T11:15:42.128Z,0.90
2022-09-09T11:18:14.424Z,0.80
2022-09-09T11:20:41.836Z,1.00
2022-09-09T11:23:13.698Z,0.88
2022-09-09T11:25:42.186Z,0.90
2022-09-09T11:28:27.853Z,0.80
2022-09-09T11:30:56.860Z,0.73
2022-09-09T11:33:42.728Z,1.00
2022-09-09T11:36:18.639Z,1.00
2022-09-09T11:38:51.858Z,0.68
2022-09-09T11:41:21.717Z,0.80
2022-09-09T11:43:50.530Z,0.90
2022-09-09T11:46:19.055Z,1.15
2022-09-09T11:48:59.723Z,1.10
2022-09-09T11:51:28.812Z,1.05
2022-09-09T11:54:02.178Z,1.33
2022-09-09T11:56:45.533Z,0.88
2022-09-09T11:59:22.847Z,1.05
2022-09-09T12:02:19.559Z,1.00
2022-09-09T12:04:56.484Z,1.00
2022-09-09T12:07:27.627Z,1.80
2022-09-09T12:09:55.064Z,0.93
2022-09-09T12:12:24.084Z,1.20
2022-09-09T12:14:57.249Z,1.00
2022-09-09T12:17:25.726Z,0.82
2022-09-09T12:20:10.821Z,1.15
2022-09-09T12:22:53.266Z,0.80
2022-09-09T12:25:38.997Z,1.20
2022-09-09T12:28:06.185Z,1.30
2022-09-09T12:30:36.437Z,1.10
2022-09-09T12:33:04.585Z,1.00
2022-09-09T12:35:32.145Z,1.17
2022-09-09T12:38:03.607Z,0.98
2022-09-09T12:40:33.365Z,1.00
2022-09-09T12:43:02.218Z,1.20
2022-09-09T12:45:32.283Z,1.02
2022-09-09T12:48:01.543Z,1.00
2022-09-09T12:50:32.993Z,1.08
2022-09-09T12:53:09.366Z,1.10
2022-09-09T12:55:40.474Z,1.13
2022-09-09T12:58:08.332Z,1.40
2022-09-09T13:00:35.987Z,0.90
2022-09-09T13:03:04.685Z,1.02
2022-09-09T13:05:39.841Z,1.00
2022-09-09T13:08:08.483Z,0.90
2022-09-09T13:10:52.814Z,1.00
2022-09-09T13:13:26.479Z,1.15
2022-09-09T13:15:57.746Z,0.90
2022-09-09T13:18:26.431Z,0.98
2022-09-09T13:20:53.561Z,1.00
2022-09-09T13:23:21.866Z,0.80
2022-09-09T13:25:59.288Z,0.90
2022-09-09T13:28:28.126Z,0.90
2022-09-09T13:31:04.766Z,0.80
2022-09-09T13:33:38.145Z,0.93
2022-09-09T13:36:07.245Z,0.68
2022-09-09T13:38:37.662Z,0.77
2022-09-09T13:41:06.084Z,0.98
2022-09-09T13:43:53.409Z,0.85
2022-09-09T13:46:37.086Z,0.90
2022-09-09T13:49:10.257Z,1.00
2022-09-09T13:51:38.565Z,0.73
2022-09-09T13:54:10.832Z,0.80
2022-09-09T13:56:38.938Z,1.00
2022-09-09T13:59:07.045Z,0.93
2022-09-09T14:01:35.896Z,0.73
2022-09-09T14:04:03.125Z,0.93
2022-09-09T14:06:30.818Z,0.90
2022-09-09T14:08:58.095Z,1.10
2022-09-09T14:11:25.422Z,0.90
2022-09-09T14:13:52.702Z,1.02
2022-09-09T14:16:19.876Z,0.93
2022-09-09T14:18:47.184Z,0.90
2022-09-09T14:21:15.176Z,1.10
2022-09-09T14:23:42.260Z,1.10
2022-09-09T14:26:10.192Z,0.90
2022-09-09T14:31:25.272Z,0.80
2022-09-09T14:33:53.552Z,1.00
2022-09-09T14:36:20.872Z,0.90
2022-09-09T14:38:48.112Z,0.90
2022-09-09T14:41:19.132Z,0.90
2022-09-09T14:43:46.639Z,1.00
2022-09-09T14:46:15.290Z,0.85
2022-09-09T14:48:42.680Z,0.73
2022-09-09T14:51:10.665Z,1.10
2022-09-09T14:53:38.573Z,1.10
2022-09-09T14:56:07.055Z,1.25
2022-09-09T14:58:34.239Z,1.30
2022-09-09T15:01:05.995Z,1.10
2022-09-09T15:03:33.198Z,1.07
2022-09-09T15:06:00.415Z,1.10
2022-09-09T15:08:27.655Z,1.17
2022-09-09T15:11:02.015Z,1.10
2022-09-09T15:13:29.309Z,1.30
2022-09-09T15:15:56.527Z,1.17
2022-09-09T15:18:23.615Z,0.87
2022-09-09T15:20:50.839Z,1.00
2022-09-09T15:23:17.896Z,0.90
2022-09-09T15:25:54.529Z,0.82
2022-09-09T15:28:22.080Z,0.65
2022-09-09T15:30:49.936Z,1.00
2022-09-09T15:33:17.302Z,0.90
2022-09-09T15:35:44.457Z,1.00
2022-09-09T15:38:13.963Z,1.33
2022-09-09T15:40:41.706Z,0.73
2022-09-09T15:43:10.442Z,0.77
2022-09-09T15:45:37.860Z,0.90
2022-09-09T15:48:05.518Z,0.70
2022-09-09T15:50:33.384Z,0.80
2022-09-09T15:53:00.938Z,1.13
2022-09-09T15:55:28.069Z,0.70
2022-09-09T15:57:56.005Z,0.90
2022-09-09T16:00:24.247Z,1.10
2022-09-09T16:02:51.810Z,1.10
2022-09-09T16:05:18.880Z,1.13
2022-09-09T16:07:46.879Z,1.10
2022-09-09T16:10:14.604Z,0.90
2022-09-09T16:12:41.797Z,1.00
2022-09-09T16:15:09.003Z,1.00
2022-09-09T16:17:38.697Z,1.20
2022-09-09T16:20:09.018Z,1.08
2022-09-09T16:22:36.142Z,1.00
2022-09-09T16:25:03.337Z,1.00
2022-09-09T16:27:30.446Z,1.30
2022-09-09T16:29:57.504Z,1.00
2022-09-09T16:32:24.758Z,1.17
2022-09-09T16:34:52.306Z,0.90
2022-09-09T16:37:20.194Z,0.83
2022-09-09T16:39:47.368Z,0.90
2022-09-09T16:42:14.645Z,0.80
2022-09-09T16:44:42.293Z,0.97
2022-09-09T16:47:09.341Z,0.80
2022-09-09T16:49:36.977Z,0.80
2022-09-09T16:52:04.075Z,0.80
2022-09-09T16:54:31.218Z,1.00
2022-09-09T16:56:58.723Z,1.00
2022-09-09T16:59:25.838Z,0.73
2022-09-09T17:01:53.452Z,0.97
2022-09-09T17:04:22.404Z,1.00
2022-09-09T17:06:50.383Z,0.87
2022-09-09T17:09:17.931Z,0.80
2022-09-09T17:11:46.262Z,0.97
2022-09-09T17:14:15.440Z,1.00
2022-09-09T17:16:42.595Z,0.97
2022-09-09T17:19:10.899Z,0.90
2022-09-09T17:21:49.557Z,0.93
2022-09-09T17:24:26.323Z,1.00
2022-09-09T17:26:53.497Z,1.00
2022-09-09T17:29:20.628Z,1.03
2022-09-09T17:31:47.764Z,0.97
2022-09-09T17:34:14.859Z,1.13
2022-09-09T17:36:41.967Z,1.20
2022-09-09T17:39:09.268Z,1.00
2022-09-09T17:41:39.891Z,1.00
2022-09-09T17:46:41.625Z,1.30
2022-09-09T17:49:10.667Z,0.90
2022-09-09T17:51:38.148Z,1.10
2022-09-09T17:54:11.714Z,1.00
2022-09-09T17:56:39.535Z,1.10
2022-09-09T17:59:07.979Z,0.93
2022-09-09T18:01:36.376Z,1.20
2022-09-09T18:04:04.670Z,1.20
2022-09-09T18:06:36.236Z,1.30
2022-09-09T18:09:05.355Z,1.20
2022-09-09T18:11:34.234Z,1.20
2022-09-09T18:14:02.738Z,1.23
2022-09-09T18:16:31.269Z,1.10
2022-09-09T18:18:59.344Z,1.10
2022-09-09T18:21:27.575Z,1.00
2022-09-09T18:23:54.665Z,1.40
2022-09-09T18:26:26.185Z,1.20
2022-09-09T18:28:54.597Z,1.00
2022-09-09T18:31:25.561Z,1.23
2022-09-09T18:33:53.449Z,1.23
2022-09-09T18:36:25.287Z,1.27
2022-09-09T18:38:52.437Z,1.10
2022-09-09T18:41:19.541Z,1.10
2022-09-09T18:43:46.759Z,1.20
2022-09-09T18:46:16.118Z,1.20
2022-09-09T18:48:45.695Z,1.23
2022-09-09T18:51:13.636Z,1.10
2022-09-09T18:53:44.393Z,0.90
2022-09-09T18:56:13.108Z,0.90
2022-09-09T18:58:40.716Z,1.00
2022-09-09T19:01:12.324Z,1.00
2022-09-09T19:03:39.609Z,0.80
2022-09-09T19:06:09.552Z,0.97
2022-09-09T19:08:37.913Z,1.00
2022-09-09T19:11:06.307Z,0.90
2022-09-09T19:13:33.555Z,1.00
2022-09-09T19:16:07.664Z,0.90
2022-09-09T19:18:36.890Z,1.10
2022-09-09T19:21:11.192Z,1.00
2022-09-09T19:23:39.019Z,1.20
2022-09-09T19:26:06.510Z,0.90
2022-09-09T19:28:35.225Z,1.20
2022-09-09T19:31:06.521Z,1.07
2022-09-09T19:33:33.951Z,1.10
2022-09-09T19:36:04.758Z,1.10
2022-09-09T19:38:32.134Z,1.17
2022-09-09T19:41:06.717Z,1.00
2022-09-09T19:43:34.884Z,1.00
2022-09-09T19:46:03.120Z,1.10
2022-09-09T19:48:33.875Z,1.40
2022-09-09T19:51:29.335Z,1.40
2022-09-09T19:53:58.117Z,1.70
2022-09-09T19:56:28.364Z,1.27
2022-09-09T19:58:56.087Z,1.70
2022-09-09T20:01:24.813Z,1.50
2022-09-09T20:03:52.478Z,1.40
2022-09-09T20:06:21.049Z,1.40
2022-09-09T20:08:48.880Z,1.47
2022-09-09T20:11:16.841Z,1.30
2022-09-09T20:13:44.030Z,1.10
2022-09-09T20:16:13.048Z,1.03
2022-09-09T20:18:42.058Z,1.00
2022-09-09T20:21:13.288Z,1.23
2022-09-09T20:23:40.457Z,1.00
2022-09-09T20:26:08.981Z,1.00
2022-09-09T20:28:37.042Z,1.50
2022-09-09T20:31:08.394Z,1.10
2022-09-09T20:33:36.003Z,0.90
2022-09-09T20:36:13.421Z,1.00
2022-09-09T20:38:48.311Z,1.00
2022-09-09T20:41:18.642Z,0.90
2022-09-09T20:43:49.024Z,0.80
2022-09-09T20:46:20.196Z,0.80
2022-09-09T20:48:47.849Z,0.83
2022-09-09T20:51:17.459Z,1.10
2022-09-09T20:53:44.728Z,0.90
2022-09-09T20:56:12.211Z,0.90
2022-09-09T20:58:39.590Z,0.80
2022-09-09T21:01:07.412Z,0.80
2022-09-09T21:03:37.208Z,0.97
2022-09-09T21:06:05.344Z,0.77
2022-09-09T21:08:33.071Z,1.03
2022-09-09T21:11:02.491Z,0.80
2022-09-09T21:13:30.300Z,0.70
2022-09-09T21:15:58.087Z,0.77
2022-09-09T21:18:25.276Z,0.70
2022-09-09T21:20:53.555Z,0.70
2022-09-09T21:23:20.938Z,0.63
2022-09-09T21:25:48.059Z,0.70
2022-09-09T21:28:15.703Z,0.70
2022-09-09T21:30:44.172Z,0.70
2022-09-09T21:33:11.729Z,0.80
2022-09-09T21:35:39.632Z,0.73
2022-09-09T21:38:07.586Z,0.70
2022-09-09T21:40:38.283Z,0.83
2022-09-09T21:43:06.167Z,0.53
2022-09-09T21:45:35.928Z,0.70
2022-09-09T21:48:03.126Z,0.80
2022-09-09T21:50:30.197Z,0.80
2022-09-09T21:52:57.363Z,0.67
2022-09-09T21:55:24.438Z,0.83
2022-09-09T21:57:51.601Z,0.80
2022-09-09T22:00:18.955Z,0.80
2022-09-09T22:02:46.175Z,0.80
2022-09-09T22:05:13.679Z,0.77
2022-09-09T22:07:40.770Z,0.70
2022-09-09T22:10:08.319Z,0.80
2022-09-09T22:12:35.451Z,0.83
2022-09-09T22:15:02.619Z,0.93
2022-09-09T22:17:30.007Z,1.00
2022-09-09T22:19:57.075Z,0.87
2022-09-09T22:22:24.187Z,0.80
2022-09-09T22:24:51.886Z,1.10
2022-09-09T22:27:19.229Z,0.80
2022-09-09T22:29:46.432Z,0.90
2022-09-09T22:32:13.526Z,1.20
2022-09-09T22:34:40.610Z,1.10
2022-09-09T22:37:08.146Z,0.90
2022-09-09T22:39:35.380Z,1.10
2022-09-09T22:42:05.036Z,1.00
2022-09-09T22:44:32.573Z,1.00
2022-09-09T22:47:00.023Z,0.97
2022-09-09T22:49:27.423Z,1.50
2022-09-09T22:51:54.843Z,2.10
2022-09-09T22:54:23.005Z,1.60
2022-09-09T22:56:50.661Z,1.40
2022-09-09T22:59:18.659Z,1.17
2022-09-09T23:01:45.953Z,1.20
2022-09-09T23:04:13.495Z,1.00
2022-09-09T23:06:43.139Z,0.90
2022-09-09T23:09:12.018Z,1.20
2022-09-09T23:11:39.484Z,0.77
2022-09-09T23:14:09.720Z,1.20
2022-09-09T23:16:39.735Z,1.00
2022-09-09T23:19:11.530Z,1.10
2022-09-09T23:21:40.469Z,1.00
2022-09-09T23:24:08.444Z,1.20
2022-09-09T23:26:35.579Z,1.00
2022-09-09T23:29:02.681Z,1.10
2022-09-09T23:31:31.130Z,1.10
2022-09-09T23:33:59.573Z,1.20
2022-09-09T23:36:29.468Z,1.37
2022-09-09T23:38:58.139Z,1.50
2022-09-09T23:41:25.296Z,1.40
2022-09-09T23:43:53.184Z,1.20
2022-09-09T23:46:22.048Z,1.57
2022-09-09T23:48:51.578Z,1.57
2022-09-09T23:51:19.709Z,1.33
2022-09-09T23:53:51.171Z,1.40
2022-09-09T23:56:22.376Z,1.43
2022-09-09T23:58:49.609Z,1.30
